Terminal Aerodrome Forecast
Issued by NWS

Home | Current Version | Previous Version | Text Only | Print | Product List | Glossary On
Versions: 1 2 3 4 5 6 7 8 9 10 11 12 13 14 15 16 17 18 19 20 21 22 23 24 25 26 27 28 29 30 31 32 33 34 35 36 37 38 39 40 41 42 43 44 45 46 47 48 49 50
000
FTUS41 KGYX 191720
TAFMHT
TAF
KMHT 191720Z 1918/2018 19011KT P6SM BKN120
     FM192300 19008KT P6SM OVC025
     FM200000 18008KT 4SM BR OVC015
      TEMPO 2000/2003 2SM -SHRA BR OVC007
     FM200500 20007KT 1SM BR BKN007 WS020/24035KT
     FM201400 22005KT 4SM BR BKN007=

USA.gov is the U.S. government's official web portal to all federal, state and local government web resources and services.